Latest Weather Observations for Bairnsdale

IDV60801

Issued at 6:35 pm EST Wednesday 27 August 2014 (issued every 30 minutes, with the page automatically refreshed every 10 minutes)

About weather observations | Map of weather stations | Latest weather observations for VIC | Other Formats
Station Details ID: 085279 Name: BAIRNSDALE AIRPORT Lat: -37.88 Lon: 147.57 Height: 49.4 m
Data from the previous 72 hours. | See also: Recent months at Bairnsdale
Date/Time
EST
Temp
°C
App
Temp
°C
Dew
Point
Rel
Hum
%
Delta-T
°C
Wind Press
QNH
hPa
Press
MSL
hPa
Rain
since 9 am
mm
Dir
 
Spd
km/h
Gust
km/h
Spd
kts
Gust
kts
27/06:30pm 11.1 8.2 8.3 83 1.4 ESE 13 15 7 8 1028.3 1028.4 0.0
27/06:00pm 11.8 9.0 8.5 80 1.6 ESE 13 17 7 9 1028.0 1028.1 0.0
27/05:30pm 13.0 9.1 8.5 74 2.2 E 19 24 10 13 1027.5 1027.6 0.0
27/05:00pm 14.1 9.9 8.3 68 2.9 E 20 28 11 15 1027.5 1027.6 0.0
27/04:30pm 14.9 10.9 9.1 68 3.0 E 20 28 11 15 1027.2 1027.3 0.0
27/04:00pm 15.7 11.8 9.6 67 3.2 E 20 26 11 14 1027.3 1027.4 0.0
27/03:30pm 16.0 11.7 9.2 64 3.5 E 22 28 12 15 1027.4 1027.5 0.0
27/03:00pm 16.4 11.7 7.9 57 4.3 ESE 22 28 12 15 1027.3 1027.4 0.0
27/02:30pm 16.7 12.5 8.4 58 4.2 ESE 20 26 11 14 1027.3 1027.4 0.0
27/02:00pm 16.9 13.2 8.1 56 4.4 ESE 17 22 9 12 1027.6 1027.7 0.0
27/01:30pm 16.7 13.3 7.6 55 4.6 ESE 15 20 8 11 1027.6 1027.7 0.0
27/01:00pm 17.0 12.9 6.2 49 5.3 E 17 24 9 13 1027.7 1027.8 0.0
27/12:30pm 16.6 13.4 8.6 59 4.1 E 15 22 8 12 1028.0 1028.1 0.0
27/12:00pm 15.7 12.1 8.2 61 3.8 E 17 24 9 13 1028.3 1028.4 0.0
27/11:30am 15.3 12.2 8.8 65 3.3 ENE 15 20 8 11 1028.6 1028.7 0.0
27/11:00am 14.1 11.7 8.7 70 2.7 ENE 11 15 6 8 1029.0 1029.1 0.0
27/10:30am 13.4 11.9 9.1 75 2.2 NNE 7 9 4 5 1029.2 1029.3 0.0
27/10:00am 12.0 10.8 9.7 86 1.2 NE 6 7 3 4 1029.3 1029.4 0.0
27/09:30am 10.6 10.4 10.4 99 0.1 E 2 7 1 4 1029.6 1029.6 0.0
27/09:00am 9.2 9.0 9.1 99 0.0 CALM 0 6 0 3 1029.6 1029.6 0.2
27/08:30am 7.8 6.9 7.7 99 0.0 SE 2 7 1 4 1029.3 1029.4 0.2
27/08:04am 6.8 6.0 6.7 99 0.0 CALM 0 4 0 2 1029.1 1029.2 0.2
27/08:00am 6.7 5.5 6.6 99 0.0 ESE 2 7 1 4 1029.1 1029.2 0.2
27/07:37am 4.1 1.6 4.0 99 0.0 W 6 7 3 4 1028.8 1028.9 0.2
27/07:30am 3.7 1.5 3.6 99 0.0 NW 4 6 2 3 1028.7 1028.8 0.2
27/07:00am 2.3 -0.5 2.2 99 0.0 NW 6 7 3 4 1028.2 1028.3 0.2
27/06:46am 2.1 -0.7 2.0 99 0.0 NNW 6 7 3 4 1028.1 1028.2 0.2
27/06:30am 2.4 -0.9 2.3 99 0.0 NNW 9 11 5 6 1027.8 1027.9 0.2
27/06:18am 3.4 0.2 3.3 99 0.0 N 9 9 5 5 1027.6 1027.7 0.2
27/06:11am 5.5 2.8 5.4 99 0.0 N 9 9 5 5 1027.6 1027.7 0.2
27/06:00am 4.9 2.0 4.8 99 0.0 N 9 11 5 6 1027.6 1027.7 0.2
27/05:30am 2.9 0.0 2.8 99 0.0 NNW 7 7 4 4 1027.5 1027.6 0.2
27/05:00am 2.6 -0.1 2.5 99 0.0 N 6 7 3 4 1027.4 1027.5 0.2
27/04:30am 3.8 1.1 3.7 99 0.0 N 7 9 4 5 1027.2 1027.3 0.2
27/04:20am 3.6 0.9 3.5 99 0.0 NNE 7 9 4 5 1027.1 1027.2 0.2
27/04:00am 3.9 1.2 3.8 99 0.0 NNE 7 9 4 5 1027.1 1027.2 0.2
27/03:58am 4.1 1.5 4.0 99 0.0 NNE 7 9 4 5 1027.1 1027.2 0.2
27/03:30am 5.9 3.6 5.8 99 0.0 NNE 7 9 4 5 1027.1 1027.2 0.2
27/03:00am 4.1 1.4 3.8 98 0.1 ENE 7 9 4 5 1027.5 1027.6 0.2
27/02:30am 5.0 3.8 4.7 98 0.1 CALM 0 0 0 0 1027.6 1027.7 0.0
27/02:08am 5.5 4.4 5.2 98 0.1 CALM 0 0 0 0 1027.7 1027.8 0.0
27/02:00am 5.5 3.7 5.2 98 0.1 NNE 4 7 2 4 1027.6 1027.7 0.0
27/01:36am 6.4 3.7 5.8 96 0.3 NE 9 9 5 5 1027.7 1027.8 0.0
27/01:30am 7.0 4.5 6.7 98 0.1 NE 9 11 5 6 1027.7 1027.8 0.0
27/01:00am 7.9 4.9 7.5 97 0.2 NE 13 15 7 8 1027.7 1027.8 0.0
27/12:53am 8.0 5.3 7.4 96 0.3 NE 11 13 6 7 1027.8 1027.9 0.0
27/12:30am 8.7 6.1 7.9 95 0.4 NE 11 13 6 7 1028.0 1028.1 0.0
27/12:00am 9.0 6.8 7.9 93 0.5 E 9 9 5 5 1028.1 1028.2 0.0
 
Date/Time
EST
Temp
°C
App
Temp
°C
Dew
Point
Rel
Hum
%
Delta-T
°C
Wind Press
QNH
hPa
Press
MSL
hPa
Rain
since 9 am
mm
Dir
 
Spd
km/h
Gust
km/h
Spd
kts
Gust
kts
26/11:30pm 9.4 7.6 8.0 91 0.7 ENE 7 9 4 5 1028.3 1028.4 0.0
26/11:00pm 10.1 7.7 8.5 90 0.8 ENE 11 13 6 7 1028.2 1028.3 0.0
26/10:30pm 10.7 7.7 9.1 90 0.8 ENE 15 17 8 9 1028.2 1028.3 0.0
26/10:00pm 10.4 7.7 9.0 91 0.7 ENE 13 15 7 8 1028.2 1028.3 0.0
26/09:30pm 11.3 8.8 9.7 90 0.8 ENE 13 17 7 9 1028.4 1028.5 0.0
26/09:00pm 11.5 9.0 9.8 89 0.9 ENE 13 15 7 8 1028.4 1028.5 0.0
26/08:30pm 11.9 9.5 10.1 89 0.9 E 13 17 7 9 1028.4 1028.5 0.0
26/08:00pm 12.5 9.4 10.4 87 1.1 E 17 24 9 13 1028.5 1028.6 0.0
26/07:30pm 12.6 9.1 10.3 86 1.2 E 19 24 10 13 1028.3 1028.4 0.0
26/07:00pm 12.3 9.2 10.2 87 1.1 E 17 22 9 12 1028.0 1028.1 0.0
26/06:30pm 12.5 9.8 10.4 87 1.1 ESE 15 19 8 10 1028.0 1028.1 0.0
26/06:00pm 12.8 10.6 10.9 88 1.0 ESE 13 20 7 11 1027.7 1027.8 0.0
26/05:30pm 13.5 10.6 11.0 85 1.3 ESE 17 22 9 12 1027.6 1027.7 0.0
26/05:00pm 14.4 11.1 11.0 80 1.8 ESE 19 26 10 14 1027.3 1027.4 0.0
26/04:30pm 14.9 11.4 10.9 77 2.1 E 20 30 11 16 1027.2 1027.3 0.0
26/04:00pm 15.1 11.7 11.3 78 2.0 ESE 20 30 11 16 1027.2 1027.3 0.0
26/03:30pm 15.5 11.0 11.5 77 2.2 ESE 26 35 14 19 1027.0 1027.1 0.0
26/03:00pm 16.1 11.9 11.1 72 2.7 ESE 24 32 13 17 1026.8 1026.9 0.0
26/02:30pm 16.2 12.4 11.2 72 2.7 ESE 22 28 12 15 1026.8 1026.9 0.0
26/02:00pm 16.1 12.8 10.8 71 2.8 ESE 19 26 10 14 1027.1 1027.2 0.0
26/01:30pm 17.0 14.9 11.3 69 3.1 E 13 20 7 11 1027.3 1027.4 0.0
26/01:00pm 16.3 13.9 10.2 67 3.2 E 13 22 7 12 1027.7 1027.8 0.0
26/12:30pm 16.0 14.2 11.0 72 2.7 E 11 17 6 9 1028.2 1028.3 0.0
26/12:00pm 15.5 14.1 10.9 74 2.4 E 9 17 5 9 1028.6 1028.7 0.0
26/11:30am 14.7 13.1 10.1 74 2.4 NE 9 15 5 8 1028.9 1029.0 0.0
26/11:27am 14.8 13.3 10.6 76 2.2 NE 9 15 5 8 1029.0 1029.1 0.0
26/11:00am 14.0 12.5 10.6 80 1.8 ENE 9 15 5 8 1029.5 1029.5 0.0
26/10:39am 13.2 11.6 10.2 82 1.6 ENE 9 11 5 6 1029.6 1029.6 0.0
26/10:30am 13.6 12.2 10.9 84 1.4 NE 9 11 5 6 1029.8 1029.8 0.0
26/10:19am 13.0 12.0 10.9 87 1.1 ENE 7 11 4 6 1030.0 1030.0 0.0
26/10:00am 12.8 12.3 11.9 94 0.5 NE 6 7 3 4 1030.1 1030.1 0.0
26/09:30am 11.5 10.8 11.3 99 0.1 NW 6 7 3 4 1030.1 1030.1 0.0
26/09:00am 11.2 10.3 11.2 100 0.0 NW 7 9 4 5 1029.9 1029.9 0.0
26/08:42am 10.3 9.3 10.3 100 0.0 NW 6 9 3 5 1029.8 1029.8 0.0
26/08:30am 9.8 8.7 9.8 100 0.0 WSW 6 9 3 5 1029.8 1029.8 0.0
26/08:00am 9.8 8.1 9.8 100 0.0 SW 9 13 5 7 1029.8 1029.8 0.0
26/07:30am 8.9 7.0 8.9 100 0.0 WNW 9 11 5 6 1029.5 1029.5 0.0
26/07:00am 8.4 6.9 8.4 100 0.0 NW 6 7 3 4 1029.2 1029.3 0.0
26/06:30am 8.4 6.9 8.4 100 0.0 WSW 6 9 3 5 1028.8 1028.9 0.0
26/06:00am 7.5 5.6 7.4 99 0.0 WNW 7 11 4 6 1028.6 1028.7 0.0
26/05:30am 8.1 6.5 8.0 99 0.0 WNW 6 9 3 5 1028.4 1028.5 0.0
26/05:27am 7.8 6.1 7.7 99 0.0 NW 6 9 3 5 1028.3 1028.4 0.0
26/05:26am 7.8 5.9 7.7 99 0.0 WNW 7 9 4 5 1028.3 1028.4 0.0
26/05:06am 9.0 7.4 8.9 99 0.0 NW 7 11 4 6 1028.2 1028.3 0.0
26/05:00am 9.2 7.7 9.1 99 0.0 WNW 7 9 4 5 1028.2 1028.3 0.0
26/04:30am 9.5 8.1 9.5 100 0.0 NW 7 9 4 5 1028.3 1028.4 0.0
26/04:00am 9.5 7.7 9.4 99 0.0 WNW 9 15 5 8 1028.6 1028.7 0.0
26/03:30am 9.2 7.9 9.1 99 0.0 WNW 6 9 3 5 1028.4 1028.5 0.0
26/03:00am 9.1 7.2 9.0 99 0.0 WNW 9 11 5 6 1028.2 1028.3 0.0
26/02:30am 9.0 7.1 8.9 99 0.0 NW 9 11 5 6 1028.4 1028.5 0.0
26/02:00am 9.2 7.7 9.1 99 0.0 WNW 7 11 4 6 1028.7 1028.8 0.0
26/01:30am 9.1 7.6 9.0 99 0.0 WNW 7 9 4 5 1028.8 1028.9 0.0
26/01:00am 8.9 6.9 8.8 99 0.0 NW 9 11 5 6 1028.9 1029.0 0.0
26/12:30am 8.4 5.9 8.3 99 0.0 WNW 11 13 6 7 1028.8 1028.9 0.0
26/12:00am 8.5 6.0 8.4 99 0.0 WNW 11 13 6 7 1028.9 1029.0 0.0
 
Date/Time
EST
Temp
°C
App
Temp
°C
Dew
Point
Rel
Hum
%
Delta-T
°C
Wind Press
QNH
hPa
Press
MSL
hPa
Rain
since 9 am
mm
Dir
 
Spd
km/h
Gust
km/h
Spd
kts
Gust
kts
25/11:30pm 8.6 5.8 8.5 99 0.0 NW 13 17 7 9 1028.7 1028.8 0.0
25/11:00pm 8.6 6.6 8.5 99 0.0 WNW 9 13 5 7 1028.7 1028.8 0.0
25/10:30pm 8.7 6.3 8.6 99 0.0 NW 11 13 6 7 1028.7 1028.8 0.0
25/10:00pm 8.0 6.2 7.9 99 0.0 NW 7 9 4 5 1028.9 1029.0 0.0
25/09:38pm 7.7 5.8 7.6 99 0.0 WNW 7 7 4 4 1028.9 1029.0 0.0
25/09:30pm 8.2 6.4 8.1 99 0.0 WNW 7 11 4 6 1028.9 1029.0 0.0
25/09:00pm 8.4 6.3 8.3 99 0.0 WNW 9 13 5 7 1028.7 1028.8 0.0
25/08:30pm 9.0 6.3 8.9 99 0.0 WNW 13 13 7 7 1028.6 1028.7 0.0
25/08:07pm 9.1 6.8 9.0 99 0.0 WNW 11 13 6 7 1028.6 1028.7 0.0
25/08:00pm 8.9 6.5 8.6 98 0.1 WNW 11 13 6 7 1028.6 1028.7 0.0
25/07:41pm 8.5 6.7 7.9 96 0.3 NW 7 9 4 5 1028.4 1028.5 0.0
25/07:30pm 9.1 7.1 8.5 96 0.3 NW 9 9 5 5 1028.3 1028.4 0.0
25/07:20pm 9.0 7.3 8.2 95 0.4 NW 7 9 4 5 1028.2 1028.3 0.0
25/07:07pm 9.8 7.9 8.9 94 0.4 WNW 9 9 5 5 1028.1 1028.2 0.0
25/07:00pm 10.4 9.0 9.5 94 0.4 W 7 9 4 5 1028.1 1028.2 0.0
25/06:30pm 10.9 10.9 9.7 92 0.6 CALM 0 0 0 0 1027.9 1028.0 0.0
25/06:00pm 11.8 10.7 9.9 88 1.0 S 6 7 3 4 1027.7 1027.8 0.0
25/05:30pm 12.4 10.7 9.8 84 1.3 S 9 13 5 7 1027.4 1027.5 0.0
25/05:00pm 12.6 9.8 10.0 84 1.3 S 15 19 8 10 1027.1 1027.2 0.0
25/04:30pm 13.1 10.2 9.5 79 1.8 S 15 19 8 10 1026.8 1026.9 0.0
25/04:00pm 13.1 10.2 9.5 79 1.8 S 15 20 8 11 1026.7 1026.8 0.0
25/03:30pm 13.9 10.8 10.3 79 1.9 S 17 22 9 12 1026.7 1026.8 0.0
25/03:00pm 13.5 9.7 9.7 78 1.9 S 20 24 11 13 1026.7 1026.8 0.0
25/02:30pm 14.5 10.9 9.7 73 2.5 SSE 19 24 10 13 1026.6 1026.7 0.0
25/02:00pm 14.2 11.2 9.2 72 2.5 S 15 22 8 12 1026.7 1026.8 0.0
25/01:30pm 14.3 10.5 9.1 71 2.7 S 19 24 10 13 1026.7 1026.8 0.0
25/01:00pm 14.8 11.8 9.4 70 2.8 SSE 15 20 8 11 1026.8 1026.9 0.0
25/12:30pm 14.2 11.0 9.8 75 2.3 S 17 22 9 12 1027.0 1027.1 0.0
25/12:00pm 14.1 11.2 9.5 74 2.3 S 15 22 8 12 1027.1 1027.2 0.0
25/11:30am 13.1 11.3 9.5 79 1.8 S 9 17 5 9 1027.3 1027.4 0.0
25/11:00am 13.1 11.9 10.3 83 1.4 SE 7 13 4 7 1027.4 1027.5 0.0
25/10:30am 11.9 11.6 11.4 97 0.3 SE 4 7 2 4 1027.6 1027.7 0.0
25/10:00am 11.4 11.5 11.4 100 0.0 WNW 2 6 1 3 1027.4 1027.5 0.0
25/09:30am 10.6 10.8 10.6 100 0.0 CALM 0 0 0 0 1027.4 1027.5 0.0
25/09:00am 10.1 9.0 10.1 100 0.0 N 6 7 3 4 1027.2 1027.3 14.4
25/08:30am 9.5 8.1 9.5 100 0.0 NNE 7 9 4 5 1027.0 1027.1 14.2
25/08:00am 8.9 8.3 8.8 99 0.0 NNW 2 7 1 4 1026.9 1027.0 14.2
25/07:30am 8.6 7.9 8.5 99 0.0 N 2 6 1 3 1026.6 1026.7 14.0
25/07:00am 8.4 6.7 8.3 99 0.0 ENE 7 9 4 5 1026.3 1026.4 14.0
25/06:30am 8.1 6.3 8.0 99 0.0 NE 7 9 4 5 1026.0 1026.1 14.0
25/06:27am 8.0 6.4 7.9 99 0.0 NNE 6 7 3 4 1026.1 1026.2 14.0
25/06:00am 8.0 6.8 7.9 99 0.0 NNW 4 6 2 3 1026.1 1026.2 13.6
25/05:41am 8.1 6.3 8.0 99 0.0 NW 7 9 4 5 1025.9 1026.0 13.2
25/05:30am 8.1 6.5 8.0 99 0.0 ENE 6 7 3 4 1025.8 1025.9 13.0
25/05:10am 8.1 7.6 8.0 99 0.0 CALM 0 0 0 0 1025.7 1025.8 12.6
25/05:00am 8.3 7.1 8.2 99 0.0 E 4 7 2 4 1025.6 1025.7 12.4
25/04:30am 8.2 6.6 8.1 99 0.0 E 6 9 3 5 1025.3 1025.4 11.8
25/04:00am 8.2 7.4 8.1 99 0.0 ENE 2 7 1 4 1025.3 1025.4 11.0
25/03:47am 7.9 7.4 7.8 99 0.0 CALM 0 0 0 0 1025.3 1025.4 11.0
25/03:30am 7.8 7.3 7.7 99 0.0 CALM 0 0 0 0 1025.3 1025.4 11.0
25/03:16am 7.5 6.9 7.4 99 0.0 CALM 0 0 0 0 1025.3 1025.4 11.0
25/03:00am 8.0 7.5 7.9 99 0.0 CALM 0 0 0 0 1025.4 1025.5 11.0
25/02:54am 8.0 7.5 7.9 99 0.0 CALM 0 0 0 0 1025.3 1025.4 11.0
25/02:30am 7.7 7.1 7.6 99 0.0 CALM 0 0 0 0 1025.5 1025.6 11.0
25/02:24am 7.8 7.3 7.7 99 0.0 CALM 0 0 0 0 1025.5 1025.6 11.0
25/02:19am 8.0 7.1 7.9 99 0.0 ENE 2 6 1 3 1025.5 1025.6 11.0
25/02:00am 7.8 6.5 7.7 99 0.0 NE 4 7 2 4 1025.6 1025.7 11.0
25/01:45am 7.8 6.1 7.7 99 0.0 NE 6 7 3 4 1025.7 1025.8 11.0
25/01:30am 7.9 6.1 7.8 99 0.0 NE 7 9 4 5 1025.8 1025.9 11.0
25/01:00am 7.5 6.9 7.4 99 0.0 CALM 0 0 0 0 1025.9 1026.0 11.0
25/12:30am 7.8 6.1 7.7 99 0.0 SSE 6 11 3 6 1026.0 1026.1 11.0
25/12:25am 7.6 7.0 7.5 99 0.0 CALM 0 7 0 4 1026.0 1026.1 11.0
25/12:00am 6.7 4.2 6.6 99 0.0 NW 9 11 5 6 1026.3 1026.4 11.0
 
Date/Time
EST
Temp
°C
App
Temp
°C
Dew
Point
Rel
Hum
%
Delta-T
°C
Wind Press
QNH
hPa
Press
MSL
hPa
Rain
since 9 am
mm
Dir
 
Spd
km/h
Gust
km/h
Spd
kts
Gust
kts
24/11:59pm 6.8 4.3 6.7 99 0.0 NW 9 11 5 6 1026.3 1026.4 11.0
24/11:54pm 6.9 4.5 6.8 99 0.0 NNW 9 11 5 6 1026.2 1026.3 11.0
24/11:36pm 6.8 4.3 6.7 99 0.0 NNW 9 11 5 6 1026.3 1026.4 11.0
24/11:30pm 6.9 4.8 6.8 99 0.0 NNW 7 9 4 5 1026.3 1026.4 11.0
24/11:00pm 8.0 5.8 7.9 99 0.0 N 9 11 5 6 1026.3 1026.4 11.0
24/10:30pm 8.2 6.4 8.1 99 0.0 N 7 7 4 4 1026.5 1026.6 10.8
24/10:00pm 8.9 7.8 8.6 98 0.1 N 4 6 2 3 1026.6 1026.7 10.8
24/09:30pm 9.2 7.8 8.9 98 0.1 E 6 7 3 4 1026.9 1027.0 10.8
24/09:00pm 9.3 7.9 8.8 97 0.2 NNW 6 9 3 5 1026.9 1027.0 10.2
24/08:30pm 9.1 8.0 8.5 96 0.3 S 4 9 2 5 1026.5 1026.6 10.0
24/08:19pm 9.0 7.3 8.2 95 0.4 WNW 7 9 4 5 1026.8 1026.9 9.8
24/08:06pm 8.7 4.4 7.9 95 0.4 W 20 24 11 13 1026.8 1026.9 8.2
24/08:00pm 10.5 6.8 10.3 99 0.1 W 20 24 11 13 1026.7 1026.8 6.2
24/07:30pm 11.0 9.6 10.8 99 0.1 E 9 11 5 6 1026.2 1026.3 6.0
24/07:00pm 11.2 10.2 10.9 98 0.2 S 7 9 4 5 1026.1 1026.2 6.0

Other Formats:

Comma delimited format used in spreadsheet applications
http://www.bom.gov.au/fwo/IDV60801/IDV60801.94912.axf

JavaScript Object Notation format (JSON) in row-major order
http://www.bom.gov.au/fwo/IDV60801/IDV60801.94912.json